sensor_id;sensor_type;location;lat;lon;timestamp;pressure;altitude;pressure_sealevel;temperature;humidity
27425;BME280;15244;49.088;11.886;2022-12-29T00:02:33;95557.84;;;6.57;52.33
27425;BME280;15244;49.088;11.886;2022-12-29T00:07:35;95559.00;;;6.56;52.22
27425;BME280;15244;49.088;11.886;2022-12-29T00:12:36;95573.66;;;6.55;51.73
27425;BME280;15244;49.088;11.886;2022-12-29T00:17:57;95563.63;;;6.56;51.76
27425;BME280;15244;49.088;11.886;2022-12-29T00:22:58;95544.66;;;6.56;51.88
27425;BME280;15244;49.088;11.886;2022-12-29T00:28:19;95549.66;;;6.54;51.70
27425;BME280;15244;49.088;11.886;2022-12-29T00:33:39;95533.41;;;6.54;51.99
27425;BME280;15244;49.088;11.886;2022-12-29T00:39:02;95536.13;;;6.54;52.36
27425;BME280;15244;49.088;11.886;2022-12-29T00:44:22;95545.81;;;6.55;52.33
27425;BME280;15244;49.088;11.886;2022-12-29T00:49:24;95544.31;;;6.57;51.90
27425;BME280;15244;49.088;11.886;2022-12-29T00:54:35;95530.41;;;6.59;51.93
27425;BME280;15244;49.088;11.886;2022-12-29T00:59:38;95526.19;;;6.61;52.18
27425;BME280;15244;49.088;11.886;2022-12-29T01:04:40;95528.53;;;6.63;51.93
27425;BME280;15244;49.088;11.886;2022-12-29T01:09:42;95522.75;;;6.64;51.57
27425;BME280;15244;49.088;11.886;2022-12-29T01:15:03;95533.16;;;6.62;52.21
27425;BME280;15244;49.088;11.886;2022-12-29T01:20:05;95530.81;;;6.61;52.07
27425;BME280;15244;49.088;11.886;2022-12-29T01:25:07;95531.63;;;6.61;51.72
27425;BME280;15244;49.088;11.886;2022-12-29T01:30:12;95523.47;;;6.61;52.00
27425;BME280;15244;49.088;11.886;2022-12-29T01:35:14;95516.47;;;6.60;51.84
27425;BME280;15244;49.088;11.886;2022-12-29T01:40:16;95512.56;;;6.58;51.94
27425;BME280;15244;49.088;11.886;2022-12-29T01:45:18;95507.94;;;6.58;51.97
27425;BME280;15244;49.088;11.886;2022-12-29T01:55:27;95506.72;;;6.56;51.71
27425;BME280;15244;49.088;11.886;2022-12-29T02:00:30;95513.31;;;6.55;51.94
27425;BME280;15244;49.088;11.886;2022-12-29T02:05:37;95499.34;;;6.53;51.65
27425;BME280;15244;49.088;11.886;2022-12-29T02:10:40;95493.09;;;6.48;51.66
27425;BME280;15244;49.088;11.886;2022-12-29T02:16:16;95483.03;;;6.49;51.93
27425;BME280;15244;49.088;11.886;2022-12-29T02:27:22;95489.97;;;6.46;52.03
27425;BME280;15244;49.088;11.886;2022-12-29T02:37:39;95478.75;;;6.48;52.19
27425;BME280;15244;49.088;11.886;2022-12-29T02:42:56;95463.66;;;6.47;51.58
27425;BME280;15244;49.088;11.886;2022-12-29T02:48:24;95465.94;;;6.45;51.58
27425;BME280;15244;49.088;11.886;2022-12-29T02:53:28;95455.84;;;6.42;51.95
27425;BME280;15244;49.088;11.886;2022-12-29T02:58:49;95467.84;;;6.41;51.95
27425;BME280;15244;49.088;11.886;2022-12-29T03:09:25;95462.41;;;6.41;52.34
27425;BME280;15244;49.088;11.886;2022-12-29T03:20:22;95461.56;;;6.37;52.11
27425;BME280;15244;49.088;11.886;2022-12-29T03:25:33;95455.81;;;6.38;52.10
27425;BME280;15244;49.088;11.886;2022-12-29T03:30:41;95447.69;;;6.38;52.46
27425;BME280;15244;49.088;11.886;2022-12-29T03:35:47;95438.81;;;6.41;52.23
27425;BME280;15244;49.088;11.886;2022-12-29T03:40:53;95443.16;;;6.46;52.34
27425;BME280;15244;49.088;11.886;2022-12-29T03:45:58;95431.16;;;6.47;52.20
27425;BME280;15244;49.088;11.886;2022-12-29T03:51:00;95425.41;;;6.48;51.96
27425;BME280;15244;49.088;11.886;2022-12-29T03:56:02;95437.78;;;6.49;52.21
27425;BME280;15244;49.088;11.886;2022-12-29T04:01:04;95425.00;;;6.50;52.17
27425;BME280;15244;49.088;11.886;2022-12-29T04:06:08;95425.84;;;6.54;52.28
27425;BME280;15244;49.088;11.886;2022-12-29T04:11:17;95425.91;;;6.58;52.48
27425;BME280;15244;49.088;11.886;2022-12-29T04:16:19;95434.03;;;6.58;52.54
27425;BME280;15244;49.088;11.886;2022-12-29T04:21:21;95431.75;;;6.60;52.54
27425;BME280;15244;49.088;11.886;2022-12-29T04:26:22;95427.53;;;6.62;51.72
27425;BME280;15244;49.088;11.886;2022-12-29T04:31:33;95436.81;;;6.61;52.02
27425;BME280;15244;49.088;11.886;2022-12-29T04:36:35;95448.41;;;6.62;52.04
27425;BME280;15244;49.088;11.886;2022-12-29T04:41:37;95440.28;;;6.62;52.07
27425;BME280;15244;49.088;11.886;2022-12-29T04:46:41;95444.19;;;6.64;51.99
27425;BME280;15244;49.088;11.886;2022-12-29T04:51:52;95439.91;;;6.63;51.69
27425;BME280;15244;49.088;11.886;2022-12-29T04:56:54;95443.41;;;6.64;52.18
27425;BME280;15244;49.088;11.886;2022-12-29T05:01:55;95446.91;;;6.64;52.09
27425;BME280;15244;49.088;11.886;2022-12-29T05:06:57;95447.69;;;6.65;51.83
27425;BME280;15244;49.088;11.886;2022-12-29T05:11:59;95437.63;;;6.65;52.01
27425;BME280;15244;49.088;11.886;2022-12-29T05:17:01;95439.19;;;6.66;51.81
27425;BME280;15244;49.088;11.886;2022-12-29T05:22:03;95443.47;;;6.67;52.30
27425;BME280;15244;49.088;11.886;2022-12-29T05:27:05;95440.75;;;6.67;52.34
27425;BME280;15244;49.088;11.886;2022-12-29T05:32:22;95427.56;;;6.66;52.24
27425;BME280;15244;49.088;11.886;2022-12-29T05:37:24;95432.19;;;6.65;51.88
27425;BME280;15244;49.088;11.886;2022-12-29T05:42:25;95429.88;;;6.64;52.07
27425;BME280;15244;49.088;11.886;2022-12-29T05:47:45;95433.28;;;6.61;52.23
27425;BME280;15244;49.088;11.886;2022-12-29T05:53:05;95429.03;;;6.60;52.50
27425;BME280;15244;49.088;11.886;2022-12-29T05:58:09;95430.97;;;6.59;52.14
27425;BME280;15244;49.088;11.886;2022-12-29T06:03:11;95437.16;;;6.60;52.70
27425;BME280;15244;49.088;11.886;2022-12-29T06:08:13;95428.69;;;6.61;52.62
27425;BME280;15244;49.088;11.886;2022-12-29T06:13:14;95437.63;;;6.65;52.34
27425;BME280;15244;49.088;11.886;2022-12-29T06:18:19;95434.13;;;6.65;52.37
27425;BME280;15244;49.088;11.886;2022-12-29T06:23:21;95435.69;;;6.66;52.26
27425;BME280;15244;49.088;11.886;2022-12-29T06:28:23;95427.56;;;6.66;52.74
27425;BME280;15244;49.088;11.886;2022-12-29T06:33:27;95446.16;;;6.67;52.63
27425;BME280;15244;49.088;11.886;2022-12-29T06:38:28;95441.53;;;6.68;52.28
27425;BME280;15244;49.088;11.886;2022-12-29T06:43:30;95446.25;;;6.71;52.41
27425;BME280;15244;49.088;11.886;2022-12-29T06:48:52;95453.94;;;6.69;52.04
27425;BME280;15244;49.088;11.886;2022-12-29T06:53:54;95453.16;;;6.68;52.08
27425;BME280;15244;49.088;11.886;2022-12-29T06:58:55;95460.06;;;6.66;51.81
27425;BME280;15244;49.088;11.886;2022-12-29T07:03:57;95455.38;;;6.63;51.82
27425;BME280;15244;49.088;11.886;2022-12-29T07:08:59;95451.84;;;6.59;51.68
27425;BME280;15244;49.088;11.886;2022-12-29T07:14:00;95451.47;;;6.60;52.17
27425;BME280;15244;49.088;11.886;2022-12-29T07:19:02;95454.56;;;6.59;51.63
27425;BME280;15244;49.088;11.886;2022-12-29T07:24:04;95455.28;;;6.56;51.68
27425;BME280;15244;49.088;11.886;2022-12-29T07:29:06;95449.38;;;6.50;52.34
27425;BME280;15244;49.088;11.886;2022-12-29T07:34:08;95437.78;;;6.49;51.94
27425;BME280;15244;49.088;11.886;2022-12-29T07:39:10;95435.03;;;6.46;52.02
27425;BME280;15244;49.088;11.886;2022-12-29T07:44:12;95444.66;;;6.43;51.82
27425;BME280;15244;49.088;11.886;2022-12-29T07:49:29;95444.25;;;6.41;52.08
27425;BME280;15244;49.088;11.886;2022-12-29T07:54:30;95436.88;;;6.42;51.93
27425;BME280;15244;49.088;11.886;2022-12-29T07:59:32;95443.09;;;6.42;52.27
27425;BME280;15244;49.088;11.886;2022-12-29T08:04:34;95460.53;;;6.45;52.00
27425;BME280;15244;49.088;11.886;2022-12-29T08:09:35;95470.63;;;6.48;51.88
27425;BME280;15244;49.088;11.886;2022-12-29T08:14:37;95474.53;;;6.50;52.61
27425;BME280;15244;49.088;11.886;2022-12-29T08:19:38;95472.31;;;6.56;52.10
27425;BME280;15244;49.088;11.886;2022-12-29T08:24:40;95477.00;;;6.59;52.36
27425;BME280;15244;49.088;11.886;2022-12-29T08:29:42;95476.31;;;6.66;52.15
27425;BME280;15244;49.088;11.886;2022-12-29T08:34:43;95481.03;;;6.69;52.32
27425;BME280;15244;49.088;11.886;2022-12-29T08:39:45;95483.00;;;6.72;52.21
27425;BME280;15244;49.088;11.886;2022-12-29T08:44:47;95488.47;;;6.76;52.14
27425;BME280;15244;49.088;11.886;2022-12-29T08:49:48;95483.13;;;6.79;52.10
27425;BME280;15244;49.088;11.886;2022-12-29T08:54:50;95495.59;;;6.84;52.31
27425;BME280;15244;49.088;11.886;2022-12-29T08:59:51;95485.13;;;6.86;52.11
27425;BME280;15244;49.088;11.886;2022-12-29T09:04:53;95494.47;;;6.88;52.22
27425;BME280;15244;49.088;11.886;2022-12-29T09:09:55;95493.78;;;6.95;52.48
27425;BME280;15244;49.088;11.886;2022-12-29T09:14:56;95493.13;;;7.02;52.31
27425;BME280;15244;49.088;11.886;2022-12-29T09:19:58;95491.97;;;7.03;52.31
27425;BME280;15244;49.088;11.886;2022-12-29T09:25:00;95479.19;;;7.03;51.82
27425;BME280;15244;49.088;11.886;2022-12-29T09:30:04;95477.31;;;7.07;52.39
27425;BME280;15244;49.088;11.886;2022-12-29T09:35:06;95478.88;;;7.08;52.41
27425;BME280;15244;49.088;11.886;2022-12-29T09:40:20;95484.81;;;7.18;51.91
27425;BME280;15244;49.088;11.886;2022-12-29T09:45:35;95479.06;;;7.23;52.16
27425;BME280;15244;49.088;11.886;2022-12-29T09:50:44;95472.97;;;7.29;52.32
27425;BME280;15244;49.088;11.886;2022-12-29T09:55:50;95459.09;;;7.34;52.43
27425;BME280;15244;49.088;11.886;2022-12-29T10:06:32;95451.56;;;7.54;52.54
27425;BME280;15244;49.088;11.886;2022-12-29T10:22:53;95449.09;;;7.76;52.54
27425;BME280;15244;49.088;11.886;2022-12-29T10:27:50;95439.44;;;7.82;52.67
27425;BME280;15244;49.088;11.886;2022-12-29T10:32:54;95436.44;;;7.91;53.03
27425;BME280;15244;49.088;11.886;2022-12-29T10:43:33;95418.66;;;7.97;53.01
27425;BME280;15244;49.088;11.886;2022-12-29T10:48:39;95422.19;;;8.01;52.78
27425;BME280;15244;49.088;11.886;2022-12-29T10:54:04;95418.38;;;8.06;52.92
27425;BME280;15244;49.088;11.886;2022-12-29T10:59:19;95410.25;;;8.09;53.25
27425;BME280;15244;49.088;11.886;2022-12-29T11:09:37;95409.97;;;8.25;53.63
27425;BME280;15244;49.088;11.886;2022-12-29T11:14:43;95408.19;;;8.40;53.96
27425;BME280;15244;49.088;11.886;2022-12-29T11:19:45;95402.09;;;8.57;53.60
27425;BME280;15244;49.088;11.886;2022-12-29T11:24:48;95395.19;;;8.67;53.53
27425;BME280;15244;49.088;11.886;2022-12-29T11:29:51;95394.50;;;8.88;53.47
27425;BME280;15244;49.088;11.886;2022-12-29T11:34:53;95388.00;;;9.03;53.28
27425;BME280;15244;49.088;11.886;2022-12-29T11:45:05;95382.69;;;9.36;53.45
27425;BME280;15244;49.088;11.886;2022-12-29T11:50:17;95380.41;;;9.59;53.27
27425;BME280;15244;49.088;11.886;2022-12-29T11:55:25;95382.81;;;9.86;53.03
27425;BME280;15244;49.088;11.886;2022-12-29T12:00:28;95373.88;;;10.07;52.97
27425;BME280;15244;49.088;11.886;2022-12-29T12:11:11;95373.91;;;10.50;52.59
27425;BME280;15244;49.088;11.886;2022-12-29T12:16:17;95347.41;;;10.65;52.33
27425;BME280;15244;49.088;11.886;2022-12-29T12:21:38;95352.81;;;10.82;52.09
27425;BME280;15244;49.088;11.886;2022-12-29T12:27:13;95362.91;;;10.93;51.92
27425;BME280;15244;49.088;11.886;2022-12-29T12:32:44;95347.66;;;11.06;52.03
27425;BME280;15244;49.088;11.886;2022-12-29T12:38:25;95355.84;;;11.10;51.53
27425;BME280;15244;49.088;11.886;2022-12-29T12:43:44;95346.06;;;11.19;51.63
27425;BME280;15244;49.088;11.886;2022-12-29T12:48:57;95341.34;;;11.27;51.39
27425;BME280;15244;49.088;11.886;2022-12-29T12:59:37;95340.09;;;11.42;51.38
27425;BME280;15244;49.088;11.886;2022-12-29T13:10:42;95333.81;;;11.49;51.20
27425;BME280;15244;49.088;11.886;2022-12-29T13:15:50;95324.44;;;11.57;51.41
27425;BME280;15244;49.088;11.886;2022-12-29T13:26:19;95340.75;;;11.68;51.45
27425;BME280;15244;49.088;11.886;2022-12-29T13:36:46;95331.75;;;11.71;51.33
27425;BME280;15244;49.088;11.886;2022-12-29T13:41:52;95320.78;;;11.75;51.24
27425;BME280;15244;49.088;11.886;2022-12-29T13:46:56;95323.53;;;11.71;51.07
27425;BME280;15244;49.088;11.886;2022-12-29T13:52:12;95330.16;;;11.74;50.92
27425;BME280;15244;49.088;11.886;2022-12-29T13:57:47;95337.16;;;11.75;51.06
27425;BME280;15244;49.088;11.886;2022-12-29T14:03:41;95330.94;;;11.78;51.13
27425;BME280;15244;49.088;11.886;2022-12-29T14:08:45;95334.78;;;11.84;50.97
27425;BME280;15244;49.088;11.886;2022-12-29T14:13:47;95339.47;;;11.87;50.99
27425;BME280;15244;49.088;11.886;2022-12-29T14:18:50;95340.25;;;11.84;50.83
27425;BME280;15244;49.088;11.886;2022-12-29T14:23:51;95327.72;;;11.90;50.68
27425;BME280;15244;49.088;11.886;2022-12-29T14:28:55;95345.66;;;11.95;50.79
27425;BME280;15244;49.088;11.886;2022-12-29T14:39:43;95377.28;;;11.96;50.39
27425;BME280;15244;49.088;11.886;2022-12-29T14:44:53;95374.16;;;11.93;50.82
27425;BME280;15244;49.088;11.886;2022-12-29T14:50:05;95375.69;;;11.95;50.83
27425;BME280;15244;49.088;11.886;2022-12-29T15:00:23;95370.63;;;11.97;50.69
27425;BME280;15244;49.088;11.886;2022-12-29T15:10:48;95373.78;;;11.91;50.45
27425;BME280;15244;49.088;11.886;2022-12-29T15:15:52;95376.50;;;11.91;50.69
27425;BME280;15244;49.088;11.886;2022-12-29T15:21:02;95382.00;;;11.88;50.74
27425;BME280;15244;49.088;11.886;2022-12-29T15:26:06;95387.03;;;11.89;50.53
27425;BME280;15244;49.088;11.886;2022-12-29T15:31:13;95386.28;;;11.89;50.73
27425;BME280;15244;49.088;11.886;2022-12-29T15:36:25;95383.16;;;11.87;50.77
27425;BME280;15244;49.088;11.886;2022-12-29T15:41:48;95386.28;;;11.85;50.67
27425;BME280;15244;49.088;11.886;2022-12-29T15:47:28;95394.84;;;11.87;50.52
27425;BME280;15244;49.088;11.886;2022-12-29T15:52:32;95390.19;;;11.88;50.60
27425;BME280;15244;49.088;11.886;2022-12-29T15:57:42;95387.84;;;11.86;50.80
27425;BME280;15244;49.088;11.886;2022-12-29T16:02:44;95383.94;;;11.84;50.81
27425;BME280;15244;49.088;11.886;2022-12-29T16:07:57;95380.06;;;11.81;50.63
27425;BME280;15244;49.088;11.886;2022-12-29T16:13:05;95383.97;;;11.80;50.62
27425;BME280;15244;49.088;11.886;2022-12-29T16:18:23;95384.75;;;11.77;50.75
27425;BME280;15244;49.088;11.886;2022-12-29T16:23:28;95387.13;;;11.75;50.69
27425;BME280;15244;49.088;11.886;2022-12-29T16:28:36;95387.13;;;11.75;50.94
27425;BME280;15244;49.088;11.886;2022-12-29T16:33:45;95388.69;;;11.73;50.66
27425;BME280;15244;49.088;11.886;2022-12-29T16:38:47;95389.84;;;11.71;50.98
27425;BME280;15244;49.088;11.886;2022-12-29T16:49:19;95392.59;;;11.71;50.86
27425;BME280;15244;49.088;11.886;2022-12-29T16:54:35;95373.91;;;11.66;50.70
27425;BME280;15244;49.088;11.886;2022-12-29T16:59:42;95384.03;;;11.66;50.63
27425;BME280;15244;49.088;11.886;2022-12-29T17:04:44;95388.72;;;11.62;50.88
27425;BME280;15244;49.088;11.886;2022-12-29T17:09:50;95384.06;;;11.62;50.90
27425;BME280;15244;49.088;11.886;2022-12-29T17:14:54;95391.47;;;11.62;50.63
27425;BME280;15244;49.088;11.886;2022-12-29T17:25:12;95400.47;;;11.62;50.76
27425;BME280;15244;49.088;11.886;2022-12-29T17:30:20;95389.13;;;11.64;50.71
27425;BME280;15244;49.088;11.886;2022-12-29T17:35:27;95394.56;;;11.64;50.65
27425;BME280;15244;49.088;11.886;2022-12-29T17:40:31;95401.63;;;11.61;50.49
27425;BME280;15244;49.088;11.886;2022-12-29T17:45:33;95394.63;;;11.57;50.95
27425;BME280;15244;49.088;11.886;2022-12-29T17:50:35;95392.31;;;11.48;51.06
27425;BME280;15244;49.088;11.886;2022-12-29T17:55:37;95390.38;;;11.48;50.79
27425;BME280;15244;49.088;11.886;2022-12-29T18:00:39;95390.38;;;11.52;50.89
27425;BME280;15244;49.088;11.886;2022-12-29T18:05:41;95389.56;;;11.55;50.88
27425;BME280;15244;49.088;11.886;2022-12-29T18:10:43;95389.16;;;11.57;50.67
27425;BME280;15244;49.088;11.886;2022-12-29T18:15:45;95392.28;;;11.55;50.74
27425;BME280;15244;49.088;11.886;2022-12-29T18:20:48;95385.66;;;11.60;51.14
27425;BME280;15244;49.088;11.886;2022-12-29T18:25:57;95385.66;;;11.60;50.92
27425;BME280;15244;49.088;11.886;2022-12-29T18:31:00;95387.19;;;11.61;50.96
27425;BME280;15244;49.088;11.886;2022-12-29T18:36:04;95404.75;;;11.60;50.87
27425;BME280;15244;49.088;11.886;2022-12-29T18:41:13;95410.59;;;11.58;50.66
27425;BME280;15244;49.088;11.886;2022-12-29T18:46:16;95420.34;;;11.63;50.39
27425;BME280;15244;49.088;11.886;2022-12-29T18:51:24;95429.69;;;11.65;50.42
27425;BME280;15244;49.088;11.886;2022-12-29T18:56:26;95446.81;;;11.69;50.41
27425;BME280;15244;49.088;11.886;2022-12-29T19:01:28;95470.63;;;11.73;50.43
27425;BME280;15244;49.088;11.886;2022-12-29T19:06:29;95465.53;;;11.75;50.66
27425;BME280;15244;49.088;11.886;2022-12-29T19:11:31;95471.78;;;11.75;51.14
27425;BME280;15244;49.088;11.886;2022-12-29T19:16:33;95462.78;;;11.75;51.25
27425;BME280;15244;49.088;11.886;2022-12-29T19:21:36;95464.75;;;11.78;51.27
27425;BME280;15244;49.088;11.886;2022-12-29T19:26:39;95461.59;;;11.79;51.47
27425;BME280;15244;49.088;11.886;2022-12-29T19:31:40;95467.84;;;11.83;51.54
27425;BME280;15244;49.088;11.886;2022-12-29T19:36:43;95463.91;;;11.84;51.59
27425;BME280;15244;49.088;11.886;2022-12-29T19:41:45;95474.84;;;11.84;51.73
27425;BME280;15244;49.088;11.886;2022-12-29T19:46:47;95464.34;;;11.83;52.15
27425;BME280;15244;49.088;11.886;2022-12-29T19:51:48;95470.16;;;11.85;51.75
27425;BME280;15244;49.088;11.886;2022-12-29T19:56:50;95469.38;;;11.84;52.07
27425;BME280;15244;49.088;11.886;2022-12-29T20:01:51;95465.50;;;11.85;52.09
27425;BME280;15244;49.088;11.886;2022-12-29T20:06:53;95470.56;;;11.87;51.93
27425;BME280;15244;49.088;11.886;2022-12-29T20:11:55;95463.91;;;11.84;52.08
27425;BME280;15244;49.088;11.886;2022-12-29T20:16:56;95471.34;;;11.84;52.30
27425;BME280;15244;49.088;11.886;2022-12-29T20:22:11;95474.84;;;11.84;52.04
27425;BME280;15244;49.088;11.886;2022-12-29T20:27:13;95482.28;;;11.84;52.44
27425;BME280;15244;49.088;11.886;2022-12-29T20:32:18;95486.53;;;11.85;52.33
27425;BME280;15244;49.088;11.886;2022-12-29T20:37:21;95479.91;;;11.82;52.32
27425;BME280;15244;49.088;11.886;2022-12-29T20:42:22;95476.84;;;11.80;52.14
27425;BME280;15244;49.088;11.886;2022-12-29T20:47:24;95468.25;;;11.78;52.04
27425;BME280;15244;49.088;11.886;2022-12-29T20:52:26;95476.44;;;11.78;52.21
27425;BME280;15244;49.088;11.886;2022-12-29T20:57:27;95466.28;;;11.79;52.25
27425;BME280;15244;49.088;11.886;2022-12-29T21:02:49;95476.84;;;11.77;52.36
27425;BME280;15244;49.088;11.886;2022-12-29T21:07:52;95470.97;;;11.78;52.55
27425;BME280;15244;49.088;11.886;2022-12-29T21:12:53;95467.47;;;11.78;52.45
27425;BME280;15244;49.088;11.886;2022-12-29T21:17:55;95467.88;;;11.76;52.59
27425;BME280;15244;49.088;11.886;2022-12-29T21:22:58;95466.69;;;11.77;52.25
27425;BME280;15244;49.088;11.886;2022-12-29T21:28:00;95466.69;;;11.77;52.56
27425;BME280;15244;49.088;11.886;2022-12-29T21:33:02;95472.94;;;11.78;52.32
27425;BME280;15244;49.088;11.886;2022-12-29T21:38:05;95479.56;;;11.77;52.58
27425;BME280;15244;49.088;11.886;2022-12-29T21:43:09;95482.28;;;11.77;52.58
27425;BME280;15244;49.088;11.886;2022-12-29T21:48:11;95479.56;;;11.77;52.45
27425;BME280;15244;49.088;11.886;2022-12-29T21:53:24;95467.09;;;11.76;52.33
27425;BME280;15244;49.088;11.886;2022-12-29T21:58:39;95476.06;;;11.76;52.63
27425;BME280;15244;49.088;11.886;2022-12-29T22:04:00;95473.72;;;11.75;52.49
27425;BME280;15244;49.088;11.886;2022-12-29T22:09:20;95485.44;;;11.75;52.15
27425;BME280;15244;49.088;11.886;2022-12-29T22:14:44;95486.97;;;11.76;52.54
27425;BME280;15244;49.088;11.886;2022-12-29T22:19:46;95489.72;;;11.76;52.66
27425;BME280;15244;49.088;11.886;2022-12-29T22:24:47;95499.47;;;11.77;52.57
27425;BME280;15244;49.088;11.886;2022-12-29T22:29:49;95510.38;;;11.77;52.80
27425;BME280;15244;49.088;11.886;2022-12-29T22:34:51;95515.47;;;11.75;52.52
27425;BME280;15244;49.088;11.886;2022-12-29T22:39:52;95516.63;;;11.74;52.65
27425;BME280;15244;49.088;11.886;2022-12-29T22:44:54;95527.56;;;11.74;52.48
27425;BME280;15244;49.088;11.886;2022-12-29T22:49:56;95537.72;;;11.74;52.55
27425;BME280;15244;49.088;11.886;2022-12-29T22:54:57;95536.16;;;11.69;52.68
27425;BME280;15244;49.088;11.886;2022-12-29T23:00:08;95536.19;;;11.65;52.79
27425;BME280;15244;49.088;11.886;2022-12-29T23:05:10;95551.41;;;11.63;52.97
27425;BME280;15244;49.088;11.886;2022-12-29T23:10:11;95549.47;;;11.56;53.22
27425;BME280;15244;49.088;11.886;2022-12-29T23:15:13;95568.59;;;11.53;53.18
27425;BME280;15244;49.088;11.886;2022-12-29T23:20:15;95574.84;;;11.49;53.47
27425;BME280;15244;49.088;11.886;2022-12-29T23:25:16;95587.34;;;11.40;53.71
27425;BME280;15244;49.088;11.886;2022-12-29T23:30:18;95595.91;;;11.27;53.23
27425;BME280;15244;49.088;11.886;2022-12-29T23:35:19;95590.47;;;11.13;53.59
27425;BME280;15244;49.088;11.886;2022-12-29T23:40:21;95596.69;;;11.03;53.55
27425;BME280;15244;49.088;11.886;2022-12-29T23:45:22;95616.97;;;10.95;54.00
27425;BME280;15244;49.088;11.886;2022-12-29T23:50:24;95634.09;;;10.92;53.95
27425;BME280;15244;49.088;11.886;2022-12-29T23:55:26;95642.25;;;10.81;54.14
